Weather at Lloyd Stearman Field

Public forecast

Using degrees Fahrenheit for public forecast. Weather courtesy of forecast.io.

Closest aviation weather report (METAR) to Lloyd Stearman Field

Closest report is Colonel James Jabara Airport, 5.4 nm (10.0 km) WSW. Retrieved 2022/07/04 10:54 UTC (21 minutes ago):

KAAO 041054Z AUTO 18006KT 10SM CLR 23/21 A2997 RMK AO2 SLP133 T02330206

Closest aviation forecast (TAF) to Lloyd Stearman Field

Forecast is more than 12 hours old.

Closest forecast is Mc Connell Air Force Base, 11.9 nm (22.0 km) SW. Retrieved 2022/07/03 19:00 UTC (16 hours ago):

TAF KIAB 031900Z 0319/0501 19012G18KT 9999 BKN150 QNH3001INS BECMG 0401/0402 14008KT 9999 FEW200 QNH2995INS BECMG 0409/0410 18010KT 9999 FEW250 QNH2995INS BECMG 0415/0416 20015G25KT 9999 SCT100 QNH2987INS TX35/0322Z TN24/0411Z